createdAt,value
2018-12-04T00:00:33.542Z,10.44
2018-12-04T00:02:26.444Z,10.34
2018-12-04T00:03:26.448Z,10.32
2018-12-04T00:05:19.351Z,10.38
2018-12-04T00:06:19.363Z,10.32
2018-12-04T00:08:12.288Z,10.29
2018-12-04T00:09:12.275Z,10.29
2018-12-04T00:11:05.174Z,10.26
2018-12-04T00:12:05.194Z,10.26
2018-12-04T00:13:58.099Z,10.27
2018-12-04T00:14:58.104Z,10.15
2018-12-04T00:16:51.011Z,10.27
2018-12-04T00:17:51.013Z,10.23
2018-12-04T00:19:43.913Z,10.20
2018-12-04T00:20:43.934Z,10.20
2018-12-04T00:22:36.840Z,10.25
2018-12-04T00:23:36.848Z,10.23
2018-12-04T00:25:29.746Z,10.05
2018-12-04T00:26:29.761Z,10.04
2018-12-04T00:28:22.671Z,10.02
2018-12-04T00:29:22.676Z,9.94
2018-12-04T00:31:15.574Z,9.87
2018-12-04T00:32:15.590Z,9.96
2018-12-04T00:34:08.497Z,9.97
2018-12-04T00:35:08.505Z,10.04
2018-12-04T00:37:01.402Z,9.96
2018-12-04T00:38:01.418Z,9.96
2018-12-04T00:39:54.323Z,9.86
2018-12-04T00:40:54.331Z,9.90
2018-12-04T00:42:47.230Z,9.81
2018-12-04T00:43:47.247Z,9.79
2018-12-04T00:45:40.196Z,9.69
2018-12-04T00:46:40.157Z,9.72
2018-12-04T00:48:33.064Z,9.68
2018-12-04T00:49:33.070Z,9.75
2018-12-04T00:51:25.970Z,9.71
2018-12-04T00:52:25.985Z,9.65
2018-12-04T00:54:18.892Z,9.65
2018-12-04T00:55:18.898Z,9.64
2018-12-04T00:57:11.794Z,9.58
2018-12-04T00:58:11.809Z,9.54
2018-12-04T01:00:04.721Z,9.53
2018-12-04T01:01:04.723Z,9.54
2018-12-04T01:02:57.621Z,9.60
2018-12-04T01:03:57.636Z,9.56
2018-12-04T01:05:50.547Z,9.53
2018-12-04T01:06:50.553Z,9.50
2018-12-04T01:08:43.456Z,9.50
2018-12-04T01:09:43.463Z,9.60
2018-12-04T01:11:37.353Z,9.54
2018-12-04T01:12:37.369Z,9.54
2018-12-04T01:14:30.276Z,9.57
2018-12-04T01:15:30.284Z,9.54
2018-12-04T01:17:23.185Z,9.56
2018-12-04T01:18:23.199Z,9.56
2018-12-04T01:20:16.106Z,9.60
2018-12-04T01:21:16.111Z,9.40
2018-12-04T01:23:09.013Z,9.54
2018-12-04T01:24:09.070Z,9.43
2018-12-04T01:26:01.932Z,9.51
2018-12-04T01:27:01.936Z,9.54
2018-12-04T01:28:54.843Z,9.43
2018-12-04T01:29:54.848Z,9.51
2018-12-04T01:31:47.745Z,9.48
2018-12-04T01:32:47.761Z,9.48
2018-12-04T01:34:41.159Z,9.51
2018-12-04T01:35:41.166Z,9.47
2018-12-04T01:37:34.064Z,9.43
2018-12-04T01:38:34.080Z,9.42
2018-12-04T01:40:26.992Z,9.48
2018-12-04T01:41:26.990Z,9.40
2018-12-04T01:43:19.887Z,9.38
2018-12-04T01:44:19.901Z,9.38
2018-12-04T01:46:12.806Z,9.28
2018-12-04T01:47:12.813Z,9.29
2018-12-04T01:49:05.729Z,9.28
2018-12-04T01:50:05.725Z,9.24
2018-12-04T01:51:58.636Z,9.24
2018-12-04T01:52:58.643Z,9.23
2018-12-04T01:54:51.838Z,9.31
2018-12-04T01:55:51.548Z,9.32
2018-12-04T01:57:44.455Z,9.13
2018-12-04T01:58:44.469Z,9.17
2018-12-04T02:00:37.870Z,9.18
2018-12-04T02:01:37.879Z,9.18
2018-12-04T02:03:30.798Z,9.23
2018-12-04T02:04:30.828Z,9.13
2018-12-04T02:06:24.219Z,9.13
2018-12-04T02:07:24.230Z,9.02
2018-12-04T02:09:17.250Z,9.10
2018-12-04T02:10:17.262Z,9.05
2018-12-04T02:12:10.173Z,8.98
2018-12-04T02:13:10.177Z,9.04
2018-12-04T02:15:03.074Z,8.99
2018-12-04T02:16:03.084Z,9.04
2018-12-04T02:17:55.990Z,8.96
2018-12-04T02:18:56.000Z,8.95
2018-12-04T02:20:48.897Z,8.91
2018-12-04T02:21:48.912Z,8.98
2018-12-04T02:23:41.819Z,8.86
2018-12-04T02:24:41.833Z,8.87
2018-12-04T02:26:34.720Z,8.87
2018-12-04T02:27:34.733Z,8.87
2018-12-04T02:29:27.640Z,8.91
2018-12-04T02:30:27.642Z,8.87
2018-12-04T02:32:20.554Z,8.81
2018-12-04T02:33:20.559Z,8.77
2018-12-04T02:35:13.455Z,8.80
2018-12-04T02:36:13.470Z,8.80
2018-12-04T02:38:06.371Z,8.81
2018-12-04T02:39:06.376Z,8.77
2018-12-04T02:40:59.276Z,8.91
2018-12-04T02:41:59.293Z,8.84
2018-12-04T02:43:52.219Z,8.99
2018-12-04T02:44:52.211Z,8.95
2018-12-04T02:46:45.097Z,9.05
2018-12-04T02:47:45.112Z,9.04
2018-12-04T02:49:38.039Z,9.13
2018-12-04T02:50:38.026Z,9.14
2018-12-04T02:52:30.948Z,9.08
2018-12-04T02:53:30.942Z,9.15
2018-12-04T02:55:24.329Z,9.14
2018-12-04T02:56:24.347Z,9.17
2018-12-04T02:58:17.249Z,9.18
2018-12-04T02:59:17.254Z,9.11
2018-12-04T03:01:10.647Z,9.11
2018-12-04T03:02:10.656Z,9.10
2018-12-04T03:04:03.571Z,9.11
2018-12-04T03:05:03.573Z,9.21
2018-12-04T03:06:56.963Z,9.20
2018-12-04T03:07:56.976Z,9.17
2018-12-04T03:09:49.889Z,9.29
2018-12-04T03:10:49.891Z,9.21
2018-12-04T03:12:42.786Z,9.24
2018-12-04T03:13:42.802Z,9.21
2018-12-04T03:15:35.708Z,9.26
2018-12-04T03:16:35.712Z,9.24
2018-12-04T03:18:28.641Z,9.21
2018-12-04T03:19:28.633Z,9.14
2018-12-04T03:21:21.529Z,9.23
2018-12-04T03:22:21.552Z,9.21
2018-12-04T03:24:15.941Z,9.23
2018-12-04T03:25:15.955Z,9.24
2018-12-04T03:27:08.844Z,9.08
2018-12-04T03:28:08.863Z,9.15
2018-12-04T03:30:01.781Z,9.14
2018-12-04T03:31:01.780Z,9.18
2018-12-04T03:32:54.674Z,9.08
2018-12-04T03:33:54.686Z,9.11
2018-12-04T03:35:47.595Z,9.10
2018-12-04T03:36:47.602Z,9.01
2018-12-04T03:38:40.501Z,9.02
2018-12-04T03:39:40.514Z,8.96
2018-12-04T03:41:33.422Z,8.98
2018-12-04T03:42:33.426Z,8.94
2018-12-04T03:44:26.830Z,8.87
2018-12-04T03:45:26.834Z,8.77
2018-12-04T03:47:19.741Z,8.81
2018-12-04T03:48:19.744Z,8.83
2018-12-04T03:50:12.654Z,8.74
2018-12-04T03:51:12.660Z,8.76
2018-12-04T03:53:05.559Z,8.65
2018-12-04T03:54:05.569Z,8.65
2018-12-04T03:55:58.974Z,8.68
2018-12-04T03:56:58.981Z,8.73
2018-12-04T03:58:51.876Z,8.74
2018-12-04T03:59:51.890Z,8.68
2018-12-04T04:01:44.795Z,8.68
2018-12-04T04:02:44.800Z,8.63
2018-12-04T04:04:37.697Z,8.66
2018-12-04T04:05:37.710Z,8.66
2018-12-04T04:07:30.621Z,8.48
2018-12-04T04:08:30.625Z,8.53
2018-12-04T04:10:23.533Z,8.66
2018-12-04T04:11:23.536Z,8.66
2018-12-04T04:13:16.433Z,8.70
2018-12-04T04:14:16.452Z,8.68
2018-12-04T04:16:09.351Z,8.71
2018-12-04T04:17:09.357Z,8.65
2018-12-04T04:19:02.261Z,8.68
2018-12-04T04:20:02.274Z,8.66
2018-12-04T04:21:55.171Z,8.68
2018-12-04T04:22:55.191Z,8.65
2018-12-04T04:24:48.075Z,8.81
2018-12-04T04:25:48.088Z,8.66
2018-12-04T04:27:41.497Z,8.70
2018-12-04T04:28:41.503Z,8.70
2018-12-04T04:30:34.413Z,8.71
2018-12-04T04:31:34.412Z,8.84
2018-12-04T04:33:27.311Z,8.89
2018-12-04T04:34:27.342Z,8.96
2018-12-04T04:36:20.238Z,8.98
2018-12-04T04:37:20.235Z,8.89
2018-12-04T04:39:13.134Z,8.74
2018-12-04T04:40:13.147Z,8.80
2018-12-04T04:42:06.059Z,8.76
2018-12-04T04:43:06.075Z,8.65
2018-12-04T04:44:58.960Z,8.76
2018-12-04T04:45:58.974Z,8.50
2018-12-04T04:47:51.883Z,8.65
2018-12-04T04:48:51.887Z,8.52
2018-12-04T04:50:44.791Z,8.50
2018-12-04T04:51:44.802Z,8.50
2018-12-04T04:53:37.695Z,8.43
2018-12-04T04:54:37.707Z,8.43
2018-12-04T04:56:31.106Z,8.40
2018-12-04T04:57:31.112Z,8.44
2018-12-04T04:59:24.007Z,8.33
2018-12-04T05:00:24.021Z,8.29
2018-12-04T05:02:16.924Z,8.37
2018-12-04T05:03:16.931Z,8.30
2018-12-04T05:05:09.830Z,8.37
2018-12-04T05:06:09.841Z,8.33
2018-12-04T05:08:02.750Z,8.29
2018-12-04T05:09:02.753Z,8.18
2018-12-04T05:10:55.656Z,8.28
2018-12-04T05:11:55.660Z,8.19
2018-12-04T05:13:48.558Z,8.15
2018-12-04T05:14:48.635Z,8.23
2018-12-04T05:16:41.471Z,8.22
2018-12-04T05:17:41.476Z,8.20
2018-12-04T05:19:34.373Z,8.29
2018-12-04T05:20:34.387Z,8.19
2018-12-04T05:22:27.300Z,8.22
2018-12-04T05:23:27.309Z,8.18
2018-12-04T05:25:20.194Z,8.10
2018-12-04T05:26:20.205Z,8.05
2018-12-04T05:28:13.116Z,8.01
2018-12-04T05:29:13.118Z,7.98
2018-12-04T05:31:06.055Z,7.92
2018-12-04T05:32:06.055Z,7.90
2018-12-04T05:33:58.952Z,7.92
2018-12-04T05:34:58.967Z,7.90
2018-12-04T05:36:51.873Z,7.87
2018-12-04T05:37:51.876Z,7.85
2018-12-04T05:39:44.770Z,7.87
2018-12-04T05:40:44.783Z,7.85
2018-12-04T05:42:38.180Z,7.85
2018-12-04T05:43:38.186Z,7.80
2018-12-04T05:45:31.079Z,7.80
2018-12-04T05:46:31.095Z,7.82
2018-12-04T05:48:24.003Z,7.80
2018-12-04T05:49:24.004Z,7.69
2018-12-04T05:51:16.908Z,7.60
2018-12-04T05:52:16.913Z,7.63
2018-12-04T05:54:09.816Z,7.72
2018-12-04T05:55:09.838Z,7.64
2018-12-04T05:57:03.223Z,7.67
2018-12-04T05:58:03.232Z,7.67
2018-12-04T05:59:56.131Z,7.49
2018-12-04T06:00:56.143Z,7.45
2018-12-04T06:02:49.048Z,7.45
2018-12-04T06:03:49.065Z,7.42
2018-12-04T06:05:41.957Z,7.45
2018-12-04T06:06:41.964Z,7.52
2018-12-04T06:08:34.871Z,7.55
2018-12-04T06:09:34.871Z,7.53
2018-12-04T06:11:27.782Z,7.52
2018-12-04T06:12:27.782Z,7.53
2018-12-04T06:14:20.682Z,7.30
2018-12-04T06:15:20.696Z,7.37
2018-12-04T06:17:13.597Z,7.28
2018-12-04T06:18:13.601Z,7.28
2018-12-04T06:20:06.500Z,7.30
2018-12-04T06:21:06.507Z,7.34
2018-12-04T06:22:59.410Z,7.28
2018-12-04T06:23:59.414Z,7.28
2018-12-04T06:25:53.159Z,7.21
2018-12-04T06:26:53.172Z,7.23
2018-12-04T06:28:46.077Z,7.20
2018-12-04T06:29:46.083Z,7.25
2018-12-04T06:31:38.983Z,7.24
2018-12-04T06:32:38.987Z,7.17
2018-12-04T06:34:31.884Z,7.21
2018-12-04T06:35:31.896Z,7.23
2018-12-04T06:37:24.802Z,7.27
2018-12-04T06:38:24.811Z,7.21
2018-12-04T06:40:18.195Z,7.17
2018-12-04T06:41:18.204Z,7.15
2018-12-04T06:43:11.108Z,7.17
2018-12-04T06:44:11.111Z,7.05
2018-12-04T06:46:04.007Z,7.06
2018-12-04T06:47:04.021Z,7.09
2018-12-04T06:48:56.923Z,7.12
2018-12-04T06:49:56.927Z,7.06
2018-12-04T06:51:50.334Z,7.05
2018-12-04T06:52:50.341Z,7.06
2018-12-04T06:54:43.238Z,7.03
2018-12-04T06:55:43.246Z,7.06
2018-12-04T06:57:36.157Z,6.97
2018-12-04T06:58:36.159Z,6.92
2018-12-04T07:00:29.052Z,7.07
2018-12-04T07:01:29.067Z,6.94
2018-12-04T07:03:21.969Z,7.05
2018-12-04T07:04:21.973Z,7.07
2018-12-04T07:06:15.369Z,7.07
2018-12-04T07:07:15.384Z,7.12
2018-12-04T07:09:08.285Z,7.12
2018-12-04T07:10:08.291Z,7.10
2018-12-04T07:12:02.640Z,7.15
2018-12-04T07:13:01.199Z,7.12
2018-12-04T07:14:54.097Z,7.12
2018-12-04T07:15:54.112Z,7.16
2018-12-04T07:17:47.013Z,7.23
2018-12-04T07:18:47.016Z,7.34
2018-12-04T07:20:39.914Z,7.34
2018-12-04T07:21:39.926Z,7.40
2018-12-04T07:23:32.826Z,7.45
2018-12-04T07:24:32.832Z,7.37
2018-12-04T07:26:25.727Z,7.42
2018-12-04T07:27:25.740Z,7.40
2018-12-04T07:29:18.643Z,7.37
2018-12-04T07:30:18.643Z,7.39
2018-12-04T07:32:11.552Z,7.27
2018-12-04T07:33:11.556Z,7.28
2018-12-04T07:35:04.955Z,7.30
2018-12-04T07:36:04.971Z,7.30
2018-12-04T07:37:57.875Z,7.34
2018-12-04T07:38:57.877Z,7.21
2018-12-04T07:40:51.278Z,7.10
2018-12-04T07:41:51.288Z,7.16
2018-12-04T07:43:44.192Z,7.23
2018-12-04T07:44:44.197Z,7.16
2018-12-04T07:46:37.092Z,7.13
2018-12-04T07:47:37.106Z,7.06
2018-12-04T07:49:30.006Z,7.10
2018-12-04T07:50:30.014Z,7.06
2018-12-04T07:52:22.917Z,7.12
2018-12-04T07:53:22.921Z,7.09
2018-12-04T07:55:15.815Z,7.02
2018-12-04T07:56:15.826Z,6.97
2018-12-04T07:58:08.732Z,7.06
2018-12-04T07:59:08.736Z,7.13
2018-12-04T08:01:01.628Z,7.13
2018-12-04T08:02:01.652Z,7.15
2018-12-04T08:03:54.549Z,7.17
2018-12-04T08:04:54.550Z,7.23
2018-12-04T08:06:47.445Z,7.21
2018-12-04T08:07:47.458Z,7.15
2018-12-04T08:09:40.360Z,7.27
2018-12-04T08:10:40.365Z,7.28
2018-12-04T08:12:33.268Z,7.27
2018-12-04T08:13:33.274Z,7.37
2018-12-04T08:15:26.183Z,7.40
2018-12-04T08:16:26.193Z,7.32
2018-12-04T08:18:19.091Z,7.35
2018-12-04T08:19:19.095Z,7.34
2018-12-04T08:21:11.986Z,7.42
2018-12-04T08:22:11.998Z,7.40
2018-12-04T08:24:04.903Z,7.43
2018-12-04T08:25:04.908Z,7.43
2018-12-04T08:26:57.802Z,7.55
2018-12-04T08:27:57.815Z,7.55
2018-12-04T08:29:50.723Z,7.52
2018-12-04T08:30:50.726Z,7.60
2018-12-04T08:32:43.630Z,7.63
2018-12-04T08:33:43.635Z,7.63
2018-12-04T08:35:36.531Z,7.61
2018-12-04T08:36:36.545Z,7.67
2018-12-04T08:38:29.450Z,7.64
2018-12-04T08:39:29.462Z,7.67
2018-12-04T08:41:22.349Z,7.61
2018-12-04T08:42:22.363Z,7.80
2018-12-04T08:44:15.287Z,7.77
2018-12-04T08:45:15.301Z,7.72
2018-12-04T08:47:08.189Z,7.60
2018-12-04T08:48:08.201Z,7.77
2018-12-04T08:50:01.110Z,7.75
2018-12-04T08:51:01.108Z,7.75
2018-12-04T08:52:54.011Z,7.69
2018-12-04T08:53:54.017Z,7.64
2018-12-04T08:55:46.915Z,7.75
2018-12-04T08:56:46.924Z,7.79
2018-12-04T08:58:39.830Z,7.71
2018-12-04T08:59:39.834Z,7.79
2018-12-04T09:01:32.735Z,7.72
2018-12-04T09:02:32.759Z,7.82
2018-12-04T09:04:25.657Z,7.74
2018-12-04T09:05:25.661Z,7.77
2018-12-04T09:07:18.556Z,7.74
2018-12-04T09:08:18.570Z,7.75
2018-12-04T09:10:11.477Z,7.80
2018-12-04T09:11:11.478Z,7.83
2018-12-04T09:13:04.380Z,7.79
2018-12-04T09:14:04.389Z,7.87
2018-12-04T09:15:57.283Z,7.86
2018-12-04T09:16:57.297Z,7.89
2018-12-04T09:18:50.212Z,7.93
2018-12-04T09:19:50.225Z,8.00
2018-12-04T09:21:43.110Z,7.95
2018-12-04T09:22:43.168Z,7.92
2018-12-04T09:24:36.024Z,7.89
2018-12-04T09:25:36.053Z,7.89
2018-12-04T09:27:28.949Z,7.92
2018-12-04T09:28:28.960Z,7.97
2018-12-04T09:30:22.359Z,7.93
2018-12-04T09:31:22.343Z,7.93
2018-12-04T09:33:15.245Z,7.93
2018-12-04T09:34:15.251Z,7.83
2018-12-04T09:36:08.650Z,7.87
2018-12-04T09:37:08.664Z,8.04
2018-12-04T09:39:01.568Z,8.11
2018-12-04T09:40:01.569Z,8.12
2018-12-04T09:41:54.463Z,8.18
2018-12-04T09:42:54.478Z,8.16
2018-12-04T09:44:47.382Z,8.19
2018-12-04T09:45:47.388Z,8.15
2018-12-04T09:47:40.287Z,8.20
2018-12-04T09:48:40.300Z,8.23
2018-12-04T09:50:33.215Z,8.22
2018-12-04T09:51:33.220Z,8.22
2018-12-04T09:53:26.125Z,8.29
2018-12-04T09:54:26.127Z,8.28
2018-12-04T09:56:19.033Z,8.43
2018-12-04T09:57:19.037Z,8.53
2018-12-04T09:59:12.013Z,8.40
2018-12-04T10:00:11.947Z,8.43
2018-12-04T10:02:04.843Z,8.30
2018-12-04T10:03:04.858Z,8.29
2018-12-04T10:04:57.763Z,8.47
2018-12-04T10:05:57.768Z,8.47
2018-12-04T10:07:50.669Z,8.52
2018-12-04T10:08:50.682Z,8.50
2018-12-04T10:10:44.075Z,8.56
2018-12-04T10:11:44.082Z,8.52
2018-12-04T10:13:36.990Z,8.52
2018-12-04T10:14:36.996Z,8.63
2018-12-04T10:16:30.384Z,8.52
2018-12-04T10:17:30.403Z,8.52
2018-12-04T10:19:23.310Z,8.61
2018-12-04T10:20:23.312Z,8.66
2018-12-04T10:22:16.203Z,8.70
2018-12-04T10:23:16.217Z,8.70
2018-12-04T10:25:09.122Z,8.77
2018-12-04T10:26:09.128Z,8.92
2018-12-04T10:28:02.515Z,8.83
2018-12-04T10:29:09.656Z,8.87
2018-12-04T10:30:55.441Z,8.87
2018-12-04T10:31:56.080Z,8.91
2018-12-04T10:33:48.351Z,8.94
2018-12-04T10:34:48.356Z,8.96
2018-12-04T10:36:41.250Z,9.04
2018-12-04T10:37:41.265Z,9.14
2018-12-04T10:39:34.171Z,9.14
2018-12-04T10:40:34.178Z,8.99
2018-12-04T10:42:27.080Z,8.84
2018-12-04T10:43:27.090Z,8.86
2018-12-04T10:45:19.991Z,8.96
2018-12-04T10:46:19.996Z,8.91
2018-12-04T10:48:12.897Z,8.91
2018-12-04T10:49:12.908Z,9.01
2018-12-04T10:51:05.822Z,8.86
2018-12-04T10:52:05.821Z,8.99
2018-12-04T10:53:58.724Z,8.99
2018-12-04T10:54:58.731Z,8.96
2018-12-04T10:56:51.625Z,8.98
2018-12-04T10:57:51.640Z,9.01
2018-12-04T10:59:44.547Z,9.05
2018-12-04T11:00:44.552Z,9.10
2018-12-04T11:02:37.443Z,9.18
2018-12-04T11:03:37.458Z,9.15
2018-12-04T11:05:30.845Z,9.24
2018-12-04T11:06:30.373Z,9.14
2018-12-04T11:08:23.267Z,9.14
2018-12-04T11:09:23.279Z,9.15
2018-12-04T11:11:16.188Z,9.28
2018-12-04T11:12:16.191Z,9.24
2018-12-04T11:14:09.098Z,9.54
2018-12-04T11:15:09.104Z,9.48
2018-12-04T11:17:01.999Z,9.48
2018-12-04T11:18:02.015Z,9.58
2018-12-04T11:19:54.951Z,9.47
2018-12-04T11:20:54.929Z,9.46
2018-12-04T11:22:47.840Z,9.54
2018-12-04T11:23:47.837Z,9.57
2018-12-04T11:25:40.742Z,9.53
2018-12-04T11:26:40.748Z,9.54
2018-12-04T11:28:33.643Z,9.57
2018-12-04T11:29:33.657Z,9.46
2018-12-04T11:31:26.565Z,9.56
2018-12-04T11:32:26.568Z,9.53
2018-12-04T11:34:19.475Z,9.46
2018-12-04T11:35:19.479Z,9.46
2018-12-04T11:37:12.375Z,9.47
2018-12-04T11:38:12.389Z,9.48
2018-12-04T11:40:05.301Z,9.46
2018-12-04T11:41:05.301Z,9.51
2018-12-04T11:42:58.196Z,9.47
2018-12-04T11:43:58.210Z,9.43
2018-12-04T11:45:51.119Z,9.56
2018-12-04T11:46:51.128Z,9.54
2018-12-04T11:48:44.017Z,9.46
2018-12-04T11:49:44.036Z,9.50
2018-12-04T11:51:36.941Z,9.47
2018-12-04T11:52:36.944Z,9.57
2018-12-04T11:54:29.849Z,9.56
2018-12-04T11:55:29.851Z,9.56
2018-12-04T11:57:22.751Z,9.54
2018-12-04T11:58:22.765Z,9.61
2018-12-04T12:00:15.673Z,9.61
2018-12-04T12:01:18.223Z,9.71
2018-12-04T12:03:08.581Z,9.74
2018-12-04T12:04:08.593Z,9.76
2018-12-04T12:06:01.499Z,9.68
2018-12-04T12:07:01.508Z,9.71
2018-12-04T12:08:54.402Z,9.61
2018-12-04T12:09:54.416Z,9.76
2018-12-04T12:11:47.321Z,9.65
2018-12-04T12:12:47.328Z,9.68
2018-12-04T12:14:40.233Z,9.65
2018-12-04T12:15:40.240Z,9.60
2018-12-04T12:17:33.136Z,9.66
2018-12-04T12:18:33.147Z,9.64
2018-12-04T12:20:26.056Z,9.61
2018-12-04T12:21:26.063Z,9.69
2018-12-04T12:23:18.963Z,9.66
2018-12-04T12:24:18.974Z,9.60
2018-12-04T12:26:11.914Z,9.61
2018-12-04T12:27:11.907Z,9.64
2018-12-04T12:29:05.631Z,9.69
2018-12-04T12:30:05.646Z,9.65
2018-12-04T12:31:58.674Z,9.71
2018-12-04T12:32:58.556Z,9.69
2018-12-04T12:34:51.956Z,9.61
2018-12-04T12:35:51.963Z,9.64
2018-12-04T12:37:44.863Z,9.57
2018-12-04T12:38:44.876Z,9.53
2018-12-04T12:40:37.784Z,9.53
2018-12-04T12:41:38.028Z,9.54
2018-12-04T12:43:30.687Z,9.50
2018-12-04T12:44:30.701Z,9.56
2018-12-04T12:46:23.612Z,9.50
2018-12-04T12:47:23.618Z,9.58
2018-12-04T12:49:16.514Z,9.53
2018-12-04T12:50:16.527Z,9.57
2018-12-04T12:52:09.432Z,9.57
2018-12-04T12:53:09.438Z,9.54
2018-12-04T12:55:02.861Z,9.53
2018-12-04T12:56:02.844Z,9.61
2018-12-04T12:57:55.740Z,9.71
2018-12-04T12:58:55.756Z,9.75
2018-12-04T13:00:48.658Z,9.74
2018-12-04T13:01:48.661Z,9.71
2018-12-04T13:03:41.564Z,9.69
2018-12-04T13:04:41.610Z,9.68
2018-12-04T13:06:34.508Z,9.74
2018-12-04T13:07:34.512Z,9.69
2018-12-04T13:09:27.411Z,9.65
2018-12-04T13:10:27.427Z,9.66
2018-12-04T13:12:20.344Z,9.66
2018-12-04T13:13:20.341Z,9.74
2018-12-04T13:15:13.250Z,9.75
2018-12-04T13:16:13.250Z,9.75
2018-12-04T13:18:06.156Z,9.72
2018-12-04T13:19:06.165Z,9.75
2018-12-04T13:20:59.197Z,9.75
2018-12-04T13:21:59.078Z,9.65
2018-12-04T13:23:52.092Z,9.71
2018-12-04T13:24:51.990Z,9.64
2018-12-04T13:26:44.895Z,9.65
2018-12-04T13:27:44.917Z,9.64
2018-12-04T13:29:38.294Z,9.65
2018-12-04T13:30:38.314Z,9.68
2018-12-04T13:32:31.213Z,9.65
2018-12-04T13:33:31.227Z,9.68
2018-12-04T13:35:24.125Z,9.76
2018-12-04T13:36:24.131Z,9.64
2018-12-04T13:38:17.045Z,9.68
2018-12-04T13:39:17.042Z,9.69
2018-12-04T13:41:09.961Z,9.71
2018-12-04T13:42:09.961Z,9.65
2018-12-04T13:44:02.850Z,9.64
2018-12-04T13:45:02.875Z,9.57
2018-12-04T13:46:55.780Z,9.54
2018-12-04T13:47:55.789Z,9.56
2018-12-04T13:49:48.679Z,9.53
2018-12-04T13:50:48.689Z,9.53
2018-12-04T13:52:41.591Z,9.53
2018-12-04T13:53:41.600Z,9.50
2018-12-04T13:55:34.520Z,9.51
2018-12-04T13:56:34.525Z,9.54
2018-12-04T13:58:27.423Z,9.56
2018-12-04T13:59:27.439Z,9.51
2018-12-04T14:01:20.360Z,9.60
2018-12-04T14:02:20.355Z,9.60
2018-12-04T14:04:16.976Z,9.57
2018-12-04T14:05:13.260Z,9.47
2018-12-04T14:07:06.174Z,9.56
2018-12-04T14:08:06.175Z,9.47
2018-12-04T14:09:59.072Z,9.53
2018-12-04T14:10:59.089Z,9.54
2018-12-04T14:12:51.999Z,9.57
2018-12-04T14:13:52.004Z,9.54
2018-12-04T14:15:44.926Z,9.47
2018-12-04T14:16:44.910Z,9.50
2018-12-04T14:18:37.811Z,9.51
2018-12-04T14:19:37.823Z,9.42
2018-12-04T14:21:30.726Z,9.39
2018-12-04T14:22:30.730Z,9.40
2018-12-04T14:24:23.631Z,9.36
2018-12-04T14:25:23.665Z,9.36
2018-12-04T14:27:17.060Z,9.31
2018-12-04T14:28:17.054Z,9.31
2018-12-04T14:30:09.947Z,9.18
2018-12-04T14:31:09.962Z,9.26
2018-12-04T14:33:02.866Z,9.24
2018-12-04T14:34:02.895Z,9.28
2018-12-04T14:35:55.808Z,9.26
2018-12-04T14:36:55.782Z,9.21
2018-12-04T14:38:48.680Z,9.17
2018-12-04T14:39:48.696Z,9.14
2018-12-04T14:41:41.635Z,9.15
2018-12-04T14:42:41.613Z,9.11
2018-12-04T14:44:34.522Z,9.05
2018-12-04T14:45:34.598Z,9.04
2018-12-04T14:47:27.481Z,8.99
2018-12-04T14:48:27.458Z,9.02
2018-12-04T14:50:20.334Z,9.01
2018-12-04T14:51:20.343Z,8.96
2018-12-04T14:53:13.288Z,8.92
2018-12-04T14:54:13.292Z,8.92
2018-12-04T14:56:06.220Z,8.89
2018-12-04T14:57:06.199Z,8.80
2018-12-04T14:58:59.129Z,8.89
2018-12-04T14:59:59.112Z,8.80
2018-12-04T15:01:52.550Z,8.77
2018-12-04T15:02:52.527Z,8.74
2018-12-04T15:04:46.853Z,8.65
2018-12-04T15:05:45.931Z,8.66
2018-12-04T15:07:38.941Z,8.66
2018-12-04T15:08:38.873Z,8.68
2018-12-04T15:10:31.752Z,8.63
2018-12-04T15:11:31.761Z,8.53
2018-12-04T15:13:25.189Z,8.55
2018-12-04T15:14:25.213Z,8.53
2018-12-04T15:16:18.114Z,8.43
2018-12-04T15:17:18.089Z,8.37
2018-12-04T15:19:10.997Z,8.36
2018-12-04T15:20:11.006Z,8.29
2018-12-04T15:22:04.428Z,8.34
2018-12-04T15:23:04.416Z,8.20
2018-12-04T15:24:57.358Z,8.16
2018-12-04T15:25:57.325Z,8.16
2018-12-04T15:27:50.231Z,8.07
2018-12-04T15:28:50.350Z,8.02
2018-12-04T15:30:43.165Z,8.01
2018-12-04T15:31:43.169Z,7.98
2018-12-04T15:33:36.095Z,7.97
2018-12-04T15:34:36.090Z,7.95
2018-12-04T15:36:28.976Z,7.83
2018-12-04T15:37:28.987Z,7.83
2018-12-04T15:39:21.885Z,7.72
2018-12-04T15:40:21.893Z,7.82
2018-12-04T15:42:16.285Z,7.79
2018-12-04T15:43:16.349Z,7.75
2018-12-04T15:45:09.200Z,7.61
2018-12-04T15:46:09.256Z,7.68
2018-12-04T15:48:02.120Z,7.53
2018-12-04T15:49:02.186Z,7.58
2018-12-04T15:50:59.887Z,7.48
2018-12-04T15:51:55.041Z,7.45
2018-12-04T15:53:47.979Z,7.37
2018-12-04T15:54:47.982Z,7.31
2018-12-04T15:56:40.860Z,7.28
2018-12-04T15:57:40.864Z,7.27
2018-12-04T15:59:33.762Z,7.27
2018-12-04T16:00:33.766Z,7.27
2018-12-04T16:02:27.153Z,7.17
2018-12-04T16:03:27.168Z,7.15
2018-12-04T16:05:20.590Z,7.15
2018-12-04T16:06:20.595Z,7.13
2018-12-04T16:08:13.998Z,7.16
2018-12-04T16:09:14.002Z,7.15
2018-12-04T16:11:06.912Z,7.06
2018-12-04T16:12:06.943Z,7.06
2018-12-04T16:13:59.818Z,6.92
2018-12-04T16:14:59.829Z,6.91
2018-12-04T16:16:52.766Z,6.99
2018-12-04T16:17:52.794Z,6.99
2018-12-04T16:19:45.674Z,6.98
2018-12-04T16:20:45.679Z,6.98
2018-12-04T16:22:38.597Z,6.87
2018-12-04T16:23:38.593Z,6.89
2018-12-04T16:25:31.499Z,6.87
2018-12-04T16:26:31.506Z,6.81
2018-12-04T16:28:24.396Z,6.81
2018-12-04T16:29:24.410Z,6.80
2018-12-04T16:31:17.331Z,6.80
2018-12-04T16:32:17.316Z,6.77
2018-12-04T16:34:10.208Z,6.71
2018-12-04T16:35:10.221Z,6.69
2018-12-04T16:37:03.125Z,6.66
2018-12-04T16:38:03.136Z,6.67
2018-12-04T16:39:56.023Z,6.64
2018-12-04T16:40:56.037Z,6.61
2018-12-04T16:42:48.937Z,6.64
2018-12-04T16:43:48.939Z,6.59
2018-12-04T16:45:42.853Z,6.58
2018-12-04T16:46:43.393Z,6.46
2018-12-04T16:48:35.738Z,6.54
2018-12-04T16:49:35.751Z,6.44
2018-12-04T16:51:28.654Z,6.48
2018-12-04T16:52:28.656Z,6.54
2018-12-04T16:54:21.567Z,6.41
2018-12-04T16:55:21.562Z,6.44
2018-12-04T16:57:14.465Z,6.28
2018-12-04T16:58:14.472Z,6.30
2018-12-04T17:00:07.367Z,6.37
2018-12-04T17:01:07.388Z,6.28
2018-12-04T17:03:01.284Z,6.18
2018-12-04T17:04:01.276Z,6.27
2018-12-04T17:05:54.184Z,6.22
2018-12-04T17:06:54.184Z,6.08
2018-12-04T17:08:47.083Z,6.06
2018-12-04T17:09:47.087Z,6.04
2018-12-04T17:11:39.989Z,5.93
2018-12-04T17:12:39.994Z,5.91
2018-12-04T17:14:32.887Z,5.91
2018-12-04T17:15:32.898Z,5.94
2018-12-04T17:17:25.804Z,5.89
2018-12-04T17:18:25.801Z,5.81
2018-12-04T17:20:18.699Z,5.74
2018-12-04T17:21:18.710Z,5.79
2018-12-04T17:23:11.614Z,5.78
2018-12-04T17:24:11.619Z,5.75
2018-12-04T17:26:04.517Z,5.71
2018-12-04T17:27:04.523Z,5.76
2018-12-04T17:28:57.424Z,5.63
2018-12-04T17:29:57.428Z,5.57
2018-12-04T17:31:50.323Z,5.57
2018-12-04T17:32:50.331Z,5.60
2018-12-04T17:34:43.236Z,5.49
2018-12-04T17:35:43.237Z,5.49
2018-12-04T17:37:36.224Z,5.39
2018-12-04T17:38:36.143Z,5.39
2018-12-04T17:40:29.036Z,5.31
2018-12-04T17:41:29.051Z,5.28
2018-12-04T17:43:21.952Z,5.35
2018-12-04T17:44:21.956Z,5.21
2018-12-04T17:46:14.849Z,5.24
2018-12-04T17:47:14.863Z,5.27
2018-12-04T17:49:07.762Z,5.24
2018-12-04T17:50:07.765Z,5.22
2018-12-04T17:52:01.159Z,5.28
2018-12-04T17:53:01.169Z,5.22
2018-12-04T17:54:54.559Z,5.28
2018-12-04T17:55:54.564Z,5.22
2018-12-04T17:57:47.469Z,5.24
2018-12-04T17:58:47.469Z,5.15
2018-12-04T18:00:41.179Z,5.17
2018-12-04T18:01:40.375Z,5.22
2018-12-04T18:03:33.273Z,5.15
2018-12-04T18:04:33.275Z,5.21
2018-12-04T18:06:26.174Z,5.12
2018-12-04T18:07:26.181Z,5.12
2018-12-04T18:09:19.123Z,5.09
2018-12-04T18:10:19.135Z,5.10
2018-12-04T18:12:12.005Z,5.06
2018-12-04T18:13:12.016Z,5.04
2018-12-04T18:15:04.923Z,5.02
2018-12-04T18:16:04.921Z,5.02
2018-12-04T18:17:57.822Z,4.94
2018-12-04T18:18:57.824Z,4.96
2018-12-04T18:20:50.717Z,4.91
2018-12-04T18:21:50.728Z,4.91
2018-12-04T18:23:43.629Z,4.80
2018-12-04T18:24:43.633Z,4.86
2018-12-04T18:26:36.539Z,4.78
2018-12-04T18:27:36.539Z,4.70
2018-12-04T18:29:29.438Z,4.77
2018-12-04T18:30:29.440Z,4.75
2018-12-04T18:32:22.338Z,4.72
2018-12-04T18:33:22.349Z,4.72
2018-12-04T18:35:15.246Z,4.54
2018-12-04T18:36:15.250Z,4.65
2018-12-04T18:38:08.151Z,4.60
2018-12-04T18:39:08.157Z,4.59
2018-12-04T18:41:01.045Z,4.60
2018-12-04T18:42:01.065Z,4.54
2018-12-04T18:43:53.958Z,4.52
2018-12-04T18:44:53.959Z,4.44
2018-12-04T18:46:46.851Z,4.44
2018-12-04T18:47:46.861Z,4.50
2018-12-04T18:49:39.765Z,4.40
2018-12-04T18:50:39.763Z,4.37
2018-12-04T18:52:32.748Z,4.33
2018-12-04T18:53:32.666Z,4.32
2018-12-04T18:55:25.587Z,4.41
2018-12-04T18:56:25.575Z,4.30
2018-12-04T18:58:18.481Z,4.15
2018-12-04T18:59:18.474Z,4.18
2018-12-04T19:01:11.375Z,4.22
2018-12-04T19:02:11.385Z,4.24
2018-12-04T19:04:04.284Z,4.22
2018-12-04T19:05:04.285Z,4.15
2018-12-04T19:06:57.182Z,4.15
2018-12-04T19:07:57.192Z,4.15
2018-12-04T19:09:50.088Z,4.16